createdAt,value
2023-02-18T00:00:18.701Z,5.92
2023-02-18T00:02:47.960Z,5.88
2023-02-18T00:05:17.861Z,5.82
2023-02-18T00:07:46.978Z,5.71
2023-02-18T00:10:17.084Z,5.78
2023-02-18T00:12:47.143Z,5.78
2023-02-18T00:15:15.620Z,5.76
2023-02-18T00:17:44.190Z,5.68
2023-02-18T00:20:14.471Z,5.63
2023-02-18T00:22:43.082Z,5.62
2023-02-18T00:25:12.358Z,5.56
2023-02-18T00:27:40.917Z,5.55
2023-02-18T00:30:13.800Z,5.56
2023-02-18T00:32:42.735Z,5.58
2023-02-18T00:35:12.068Z,5.61
2023-02-18T00:37:41.179Z,5.56
2023-02-18T00:40:10.983Z,5.51
2023-02-18T00:42:39.591Z,5.51
2023-02-18T00:45:11.545Z,5.56
2023-02-18T00:47:40.950Z,5.59
2023-02-18T00:50:12.291Z,5.59
2023-02-18T00:52:41.555Z,5.51
2023-02-18T00:55:10.174Z,5.57
2023-02-18T00:57:38.444Z,5.60
2023-02-18T01:00:08.949Z,5.62
2023-02-18T01:02:39.215Z,5.67
2023-02-18T01:05:08.029Z,5.73
2023-02-18T01:07:36.467Z,5.74
2023-02-18T01:10:05.699Z,5.72
2023-02-18T01:12:34.095Z,5.69
2023-02-18T01:15:02.729Z,5.78
2023-02-18T01:17:31.385Z,5.80
2023-02-18T01:20:01.264Z,5.81
2023-02-18T01:22:29.541Z,5.84
2023-02-18T01:24:58.495Z,5.75
2023-02-18T01:27:26.894Z,5.66
2023-02-18T01:29:55.703Z,5.63
2023-02-18T01:32:24.210Z,5.56
2023-02-18T01:34:52.604Z,5.59
2023-02-18T01:37:22.398Z,5.55
2023-02-18T01:39:50.775Z,5.57
2023-02-18T01:42:23.057Z,5.62
2023-02-18T01:44:52.377Z,5.56
2023-02-18T01:47:21.586Z,5.59
2023-02-18T01:49:55.056Z,5.56
2023-02-18T01:52:32.493Z,5.53
2023-02-18T01:55:01.432Z,5.51
2023-02-18T01:57:36.403Z,5.51
2023-02-18T02:00:12.153Z,5.45
2023-02-18T02:02:46.491Z,5.46
2023-02-18T02:05:15.526Z,5.46
2023-02-18T02:07:48.894Z,5.36
2023-02-18T02:10:18.134Z,5.32
2023-02-18T02:13:02.048Z,5.31
2023-02-18T02:15:45.980Z,5.31
2023-02-18T02:18:51.943Z,5.26
2023-02-18T02:22:16.094Z,5.26
2023-02-18T02:25:22.189Z,5.29
2023-02-18T02:28:35.398Z,5.22
2023-02-18T02:31:59.269Z,5.20
2023-02-18T02:34:49.134Z,5.18
2023-02-18T02:37:28.634Z,5.18
2023-02-18T02:40:20.662Z,5.14
2023-02-18T02:43:07.633Z,5.19
2023-02-18T02:45:54.019Z,5.22
2023-02-18T02:48:34.744Z,5.18
2023-02-18T02:51:12.537Z,5.21
2023-02-18T02:53:44.219Z,5.21
2023-02-18T02:57:25.090Z,5.21
2023-02-18T02:59:59.997Z,5.19
2023-02-18T03:02:42.399Z,5.18
2023-02-18T03:05:26.541Z,5.18
2023-02-18T03:08:23.238Z,5.23
2023-02-18T03:11:02.572Z,5.23
2023-02-18T03:13:55.209Z,5.19
2023-02-18T03:16:35.798Z,5.16
2023-02-18T03:19:14.796Z,5.20
2023-02-18T03:21:51.165Z,5.15
2023-02-18T03:24:30.218Z,5.13
2023-02-18T03:27:07.854Z,5.16
2023-02-18T03:29:37.756Z,5.20
2023-02-18T03:32:13.400Z,5.18
2023-02-18T03:34:48.606Z,5.13
2023-02-18T03:37:19.203Z,5.13
2023-02-18T03:39:56.527Z,5.11
2023-02-18T03:42:28.472Z,5.11
2023-02-18T03:44:57.327Z,5.12
2023-02-18T03:47:26.337Z,5.18
2023-02-18T03:49:54.713Z,5.22
2023-02-18T03:52:23.208Z,5.13
2023-02-18T03:54:52.921Z,5.18
2023-02-18T03:57:21.269Z,5.13
2023-02-18T03:59:49.620Z,5.14
2023-02-18T04:02:17.911Z,5.18
2023-02-18T04:04:46.311Z,5.18
2023-02-18T04:07:14.658Z,5.21
2023-02-18T04:09:42.975Z,5.26
2023-02-18T04:12:13.017Z,5.26
2023-02-18T04:14:42.074Z,5.32
2023-02-18T04:17:12.773Z,5.33
2023-02-18T04:19:41.887Z,5.27
2023-02-18T04:22:11.527Z,5.28
2023-02-18T04:24:40.162Z,5.31
2023-02-18T04:27:08.730Z,5.31
2023-02-18T04:29:39.933Z,5.30
2023-02-18T04:32:08.551Z,5.30
2023-02-18T04:34:36.904Z,5.28
2023-02-18T04:37:05.310Z,5.23
2023-02-18T04:39:33.834Z,5.32
2023-02-18T04:42:02.230Z,5.37
2023-02-18T04:44:30.529Z,5.30
2023-02-18T04:47:00.175Z,5.36
2023-02-18T04:49:28.517Z,5.38
2023-02-18T04:51:56.910Z,5.37
2023-02-18T04:54:25.362Z,5.38
2023-02-18T04:56:53.726Z,5.38
2023-02-18T04:59:22.094Z,5.35
2023-02-18T05:01:50.467Z,5.28
2023-02-18T05:04:20.246Z,5.30
2023-02-18T05:06:48.680Z,5.33
2023-02-18T05:09:17.008Z,5.26
2023-02-18T05:11:47.544Z,5.32
2023-02-18T05:14:16.322Z,5.27
2023-02-18T05:16:44.768Z,5.27
2023-02-18T05:19:16.157Z,5.30
2023-02-18T05:21:46.967Z,5.28
2023-02-18T05:24:15.246Z,5.31
2023-02-18T05:26:43.589Z,5.36
2023-02-18T05:29:12.638Z,5.34
2023-02-18T05:31:41.328Z,5.39
2023-02-18T05:34:09.927Z,5.37
2023-02-18T05:36:38.606Z,5.36
2023-02-18T05:39:08.368Z,5.32
2023-02-18T05:41:36.781Z,5.32
2023-02-18T05:44:22.742Z,5.26
2023-02-18T05:46:51.073Z,5.18
2023-02-18T05:49:19.487Z,5.15
2023-02-18T05:51:47.824Z,5.13
2023-02-18T05:54:17.528Z,5.14
2023-02-18T05:56:45.828Z,5.15
2023-02-18T05:59:14.434Z,5.18
2023-02-18T06:01:43.164Z,5.18
2023-02-18T06:04:12.333Z,5.15
2023-02-18T06:06:41.326Z,5.13
2023-02-18T06:09:11.366Z,5.13
2023-02-18T06:11:42.268Z,5.05
2023-02-18T06:14:11.181Z,5.00
2023-02-18T06:16:39.875Z,5.05
2023-02-18T06:19:08.307Z,5.01
2023-02-18T06:21:36.814Z,5.04
2023-02-18T06:24:05.822Z,4.99
2023-02-18T06:26:35.163Z,4.98
2023-02-18T06:29:05.438Z,4.99
2023-02-18T06:31:34.026Z,5.01
2023-02-18T06:34:02.567Z,5.03
2023-02-18T06:36:30.905Z,5.10
2023-02-18T06:38:59.392Z,5.13
2023-02-18T06:41:27.678Z,5.12
2023-02-18T06:43:56.001Z,5.14
2023-02-18T06:46:25.773Z,5.22
2023-02-18T06:48:54.186Z,5.20
2023-02-18T06:51:23.030Z,5.29
2023-02-18T06:53:51.384Z,5.33
2023-02-18T06:56:19.721Z,5.35
2023-02-18T06:58:48.133Z,5.39
2023-02-18T07:01:16.545Z,5.41
2023-02-18T07:03:49.783Z,5.46
2023-02-18T07:06:18.531Z,5.48
2023-02-18T07:08:46.864Z,5.52
2023-02-18T07:11:16.816Z,5.52
2023-02-18T07:13:45.400Z,5.50
2023-02-18T07:16:13.697Z,5.52
2023-02-18T07:18:43.115Z,5.53
2023-02-18T07:21:12.963Z,5.54
2023-02-18T07:23:41.882Z,5.54
2023-02-18T07:26:13.653Z,5.56
2023-02-18T07:28:43.436Z,5.53
2023-02-18T07:31:13.282Z,5.56
2023-02-18T07:33:43.189Z,5.59
2023-02-18T07:36:13.383Z,5.59
2023-02-18T07:38:43.085Z,5.71
2023-02-18T07:41:19.581Z,5.64
2023-02-18T07:43:48.131Z,5.70
2023-02-18T07:46:16.778Z,5.71
2023-02-18T07:48:45.169Z,5.75
2023-02-18T07:51:15.826Z,5.75
2023-02-18T07:53:44.501Z,5.77
2023-02-18T07:56:12.964Z,5.80
2023-02-18T07:58:42.874Z,5.74
2023-02-18T08:01:15.391Z,5.76
2023-02-18T08:03:44.174Z,5.78
2023-02-18T08:06:26.471Z,5.82
2023-02-18T08:08:54.863Z,5.83
2023-02-18T08:11:23.328Z,5.80
2023-02-18T08:13:51.706Z,5.76
2023-02-18T08:16:22.377Z,5.72
2023-02-18T08:18:51.275Z,5.79
2023-02-18T08:21:25.892Z,5.75
2023-02-18T08:23:55.194Z,5.78
2023-02-18T08:26:23.549Z,5.80
2023-02-18T08:28:51.974Z,5.91
2023-02-18T08:31:23.696Z,5.96
2023-02-18T08:33:52.660Z,5.97
2023-02-18T08:36:24.069Z,5.79
2023-02-18T08:38:52.465Z,5.64
2023-02-18T08:41:21.670Z,5.56
2023-02-18T08:43:50.785Z,5.46
2023-02-18T08:46:31.449Z,5.37
2023-02-18T08:49:05.420Z,5.38
2023-02-18T08:51:36.195Z,5.39
2023-02-18T08:54:05.041Z,5.38
2023-02-18T08:56:33.612Z,5.40
2023-02-18T08:59:01.980Z,5.34
2023-02-18T09:01:30.339Z,5.31
2023-02-18T09:03:59.275Z,5.35
2023-02-18T09:06:27.946Z,5.36
2023-02-18T09:08:57.706Z,5.25
2023-02-18T09:11:26.483Z,5.25
2023-02-18T09:13:54.836Z,5.23
2023-02-18T09:16:26.072Z,5.18
2023-02-18T09:18:54.896Z,5.21
2023-02-18T09:21:24.736Z,5.19
2023-02-18T09:23:53.974Z,5.15
2023-02-18T09:26:27.904Z,5.09
2023-02-18T09:28:58.450Z,5.04
2023-02-18T09:31:29.432Z,5.04
2023-02-18T09:34:01.335Z,5.07
2023-02-18T09:36:30.454Z,5.11
2023-02-18T09:38:59.615Z,5.08
2023-02-18T09:41:41.727Z,5.07
2023-02-18T09:44:17.893Z,5.16
2023-02-18T09:46:54.126Z,5.36
2023-02-18T09:49:27.961Z,5.45
2023-02-18T09:51:58.369Z,5.60
2023-02-18T09:54:29.077Z,5.67
2023-02-18T09:57:00.999Z,5.62
2023-02-18T09:59:32.623Z,5.53
2023-02-18T10:02:03.307Z,5.47
2023-02-18T10:04:41.132Z,5.45
2023-02-18T10:07:28.387Z,5.28
2023-02-18T10:10:00.422Z,5.25
2023-02-18T10:12:35.092Z,5.27
2023-02-18T10:15:04.562Z,5.31
2023-02-18T10:17:35.344Z,5.19
2023-02-18T10:20:08.432Z,5.14
2023-02-18T10:22:40.050Z,5.17
2023-02-18T10:25:10.975Z,5.14
2023-02-18T10:27:42.813Z,5.12
2023-02-18T10:30:24.893Z,5.12
2023-02-18T10:33:10.942Z,5.09
2023-02-18T10:35:52.111Z,5.06
2023-02-18T10:38:36.218Z,5.02
2023-02-18T10:41:19.070Z,4.95
2023-02-18T10:43:58.798Z,4.85
2023-02-18T10:46:38.804Z,4.76
2023-02-18T10:49:35.469Z,4.49
2023-02-18T10:52:07.192Z,4.36
2023-02-18T10:54:54.500Z,4.28
2023-02-18T10:57:25.642Z,4.23
2023-02-18T11:00:11.795Z,4.22
2023-02-18T11:02:43.273Z,4.25
2023-02-18T11:05:26.259Z,4.30
2023-02-18T11:07:59.325Z,4.25
2023-02-18T11:10:33.733Z,4.19
2023-02-18T11:13:05.348Z,4.24
2023-02-18T11:15:35.826Z,4.26
2023-02-18T11:18:33.720Z,4.35
2023-02-18T11:21:04.689Z,4.63
2023-02-18T11:23:32.868Z,4.85
2023-02-18T11:26:04.218Z,4.92
2023-02-18T11:28:43.652Z,5.00
2023-02-18T11:31:21.077Z,4.94
2023-02-18T11:33:52.326Z,4.86
2023-02-18T11:36:25.396Z,4.74
2023-02-18T11:38:56.411Z,4.67
2023-02-18T11:41:34.364Z,4.63
2023-02-18T11:44:05.225Z,4.66
2023-02-18T11:46:35.621Z,4.64
2023-02-18T11:49:22.908Z,4.74
2023-02-18T11:51:52.495Z,4.81
2023-02-18T11:54:27.269Z,4.80
2023-02-18T11:56:58.501Z,4.74
2023-02-18T11:59:28.767Z,4.75
2023-02-18T12:02:07.292Z,4.76
2023-02-18T12:04:42.653Z,4.89
2023-02-18T12:07:20.422Z,4.91
2023-02-18T12:09:53.223Z,4.89
2023-02-18T12:12:27.599Z,5.00
2023-02-18T12:14:56.855Z,4.95
2023-02-18T12:17:46.723Z,4.91
2023-02-18T12:20:38.003Z,4.85
2023-02-18T12:23:16.113Z,4.79
2023-02-18T12:25:53.383Z,4.56
2023-02-18T12:28:37.050Z,4.34
2023-02-18T12:31:30.954Z,4.26
2023-02-18T12:34:16.762Z,4.14
2023-02-18T12:36:58.922Z,4.06
2023-02-18T12:39:44.767Z,4.04
2023-02-18T12:42:28.986Z,3.94
2023-02-18T12:45:25.311Z,3.91
2023-02-18T12:48:11.428Z,3.87
2023-02-18T12:51:07.164Z,3.81
2023-02-18T12:54:07.442Z,3.76
2023-02-18T12:57:17.828Z,3.64
2023-02-18T13:00:18.559Z,3.58
2023-02-18T13:03:05.498Z,3.58
2023-02-18T13:05:44.270Z,3.58
2023-02-18T13:08:33.189Z,3.58
2023-02-18T13:11:12.973Z,3.56
2023-02-18T13:13:44.193Z,3.49
2023-02-18T13:16:16.388Z,3.58
2023-02-18T13:18:48.908Z,3.65
2023-02-18T13:21:18.507Z,3.57
2023-02-18T13:23:53.241Z,3.54
2023-02-18T13:26:23.438Z,3.45
2023-02-18T13:29:03.607Z,3.31
2023-02-18T13:31:42.138Z,3.54
2023-02-18T13:34:19.914Z,3.79
2023-02-18T13:37:05.602Z,3.88
2023-02-18T13:39:35.836Z,3.87
2023-02-18T13:42:26.841Z,3.98
2023-02-18T13:45:19.941Z,3.88
2023-02-18T13:47:50.677Z,3.84
2023-02-18T13:50:28.292Z,3.79
2023-02-18T13:53:16.624Z,3.60
2023-02-18T13:55:54.043Z,3.53
2023-02-18T13:58:25.867Z,3.49
2023-02-18T14:00:59.946Z,3.40
2023-02-18T14:03:38.217Z,3.31
2023-02-18T14:06:17.793Z,3.43
2023-02-18T14:08:46.838Z,3.74
2023-02-18T14:11:44.848Z,4.06
2023-02-18T14:14:40.613Z,4.24
2023-02-18T14:17:42.137Z,4.55
2023-02-18T14:20:51.348Z,4.71
2023-02-18T14:23:53.688Z,5.08
2023-02-18T14:26:29.517Z,5.04
2023-02-18T14:29:04.193Z,4.71
2023-02-18T14:31:42.970Z,4.45
2023-02-18T14:34:33.904Z,4.07
2023-02-18T14:37:16.559Z,4.13
2023-02-18T14:39:55.383Z,4.15
2023-02-18T14:42:35.675Z,4.24
2023-02-18T14:45:20.595Z,4.37
2023-02-18T14:48:07.940Z,4.61
2023-02-18T14:50:38.630Z,4.78
2023-02-18T14:53:10.898Z,5.28
2023-02-18T14:55:45.145Z,5.93
2023-02-18T14:58:24.962Z,5.70
2023-02-18T15:00:54.511Z,5.09
2023-02-18T15:03:23.863Z,4.67
2023-02-18T15:05:52.556Z,4.42
2023-02-18T15:08:22.669Z,4.15
2023-02-18T15:10:54.262Z,4.13
2023-02-18T15:13:26.887Z,4.08
2023-02-18T15:15:58.937Z,4.03
2023-02-18T15:18:32.878Z,3.82
2023-02-18T15:21:03.143Z,3.61
2023-02-18T15:23:32.179Z,3.83
2023-02-18T15:26:00.325Z,3.81
2023-02-18T15:28:32.546Z,3.85
2023-02-18T15:31:03.670Z,3.76
2023-02-18T15:33:31.956Z,3.70
2023-02-18T15:36:03.866Z,3.60
2023-02-18T15:38:32.613Z,3.48
2023-02-18T15:41:02.432Z,3.28
2023-02-18T15:43:32.241Z,3.20
2023-02-18T15:46:00.644Z,3.05
2023-02-18T15:48:47.861Z,2.93
2023-02-18T15:51:22.243Z,2.91
2023-02-18T15:53:53.599Z,2.88
2023-02-18T15:56:31.087Z,2.81
2023-02-18T15:59:18.957Z,2.82
2023-02-18T16:01:51.292Z,2.77
2023-02-18T16:04:21.688Z,2.72
2023-02-18T16:06:51.683Z,2.66
2023-02-18T16:09:24.443Z,2.62
2023-02-18T16:11:59.603Z,2.55
2023-02-18T16:14:34.832Z,2.55
2023-02-18T16:17:16.078Z,2.54
2023-02-18T16:20:04.000Z,2.60
2023-02-18T16:22:38.455Z,2.68
2023-02-18T16:25:18.296Z,2.72
2023-02-18T16:27:53.999Z,2.72
2023-02-18T16:30:24.080Z,2.71
2023-02-18T16:32:52.435Z,2.70
2023-02-18T16:35:27.860Z,2.72
2023-02-18T16:37:58.511Z,2.64
2023-02-18T16:40:29.988Z,2.64
2023-02-18T16:43:00.324Z,2.76
2023-02-18T16:45:41.158Z,3.05
2023-02-18T16:48:16.480Z,3.21
2023-02-18T16:50:46.464Z,3.37
2023-02-18T16:53:14.986Z,3.50
2023-02-18T16:55:43.079Z,3.54
2023-02-18T16:58:11.682Z,3.57
2023-02-18T17:00:40.911Z,3.65
2023-02-18T17:03:09.564Z,3.71
2023-02-18T17:05:40.516Z,3.86
2023-02-18T17:08:18.965Z,3.81
2023-02-18T17:10:48.408Z,3.89
2023-02-18T17:13:17.656Z,3.94
2023-02-18T17:15:47.998Z,3.88
2023-02-18T17:18:16.167Z,3.84
